sensor_id;sensor_type;location;lat;lon;timestamp;P1;durP1;ratioP1;P2;durP2;ratioP2
76745;SDS011;65671;49.976;20.038;2024-01-30T00:01:15;13.60;;;6.57;;
76745;SDS011;65671;49.976;20.038;2024-01-30T00:03:43;12.30;;;6.28;;
76745;SDS011;65671;49.976;20.038;2024-01-30T00:08:34;13.13;;;6.23;;
76745;SDS011;65671;49.976;20.038;2024-01-30T00:10:59;13.30;;;6.70;;
76745;SDS011;65671;49.976;20.038;2024-01-30T00:13:25;11.93;;;6.90;;
76745;SDS011;65671;49.976;20.038;2024-01-30T00:18:16;12.60;;;6.43;;
76745;SDS011;65671;49.976;20.038;2024-01-30T00:23:08;10.93;;;5.60;;
76745;SDS011;65671;49.976;20.038;2024-01-30T00:27:59;14.30;;;6.43;;
76745;SDS011;65671;49.976;20.038;2024-01-30T00:32:49;12.80;;;6.30;;
76745;SDS011;65671;49.976;20.038;2024-01-30T00:37:40;13.07;;;5.93;;
76745;SDS011;65671;49.976;20.038;2024-01-30T00:40:06;12.68;;;5.88;;
76745;SDS011;65671;49.976;20.038;2024-01-30T00:42:32;11.18;;;5.07;;
76745;SDS011;65671;49.976;20.038;2024-01-30T00:44:58;11.63;;;5.75;;
76745;SDS011;65671;49.976;20.038;2024-01-30T00:49:56;10.75;;;5.15;;
76745;SDS011;65671;49.976;20.038;2024-01-30T00:52:22;9.75;;;5.05;;
76745;SDS011;65671;49.976;20.038;2024-01-30T00:57:13;14.97;;;5.50;;
76745;SDS011;65671;49.976;20.038;2024-01-30T01:02:03;12.33;;;5.07;;
76745;SDS011;65671;49.976;20.038;2024-01-30T01:06:54;10.30;;;5.53;;
76745;SDS011;65671;49.976;20.038;2024-01-30T01:09:20;10.73;;;5.90;;
76745;SDS011;65671;49.976;20.038;2024-01-30T01:11:45;8.95;;;5.60;;
76745;SDS011;65671;49.976;20.038;2024-01-30T01:16:36;10.57;;;6.50;;
76745;SDS011;65671;49.976;20.038;2024-01-30T01:19:02;10.85;;;5.63;;
76745;SDS011;65671;49.976;20.038;2024-01-30T01:21:30;10.55;;;5.97;;
76745;SDS011;65671;49.976;20.038;2024-01-30T01:26:21;8.53;;;4.60;;
76745;SDS011;65671;49.976;20.038;2024-01-30T01:31:12;25.20;;;11.03;;
76745;SDS011;65671;49.976;20.038;2024-01-30T01:33:37;26.08;;;11.85;;
76745;SDS011;65671;49.976;20.038;2024-01-30T01:38:28;20.52;;;10.38;;
76745;SDS011;65671;49.976;20.038;2024-01-30T01:43:19;19.27;;;7.60;;
76745;SDS011;65671;49.976;20.038;2024-01-30T01:48:10;14.52;;;5.10;;
76745;SDS011;65671;49.976;20.038;2024-01-30T01:50:37;7.53;;;4.50;;
76745;SDS011;65671;49.976;20.038;2024-01-30T01:53:03;10.30;;;5.65;;
76745;SDS011;65671;49.976;20.038;2024-01-30T01:55:32;9.27;;;4.65;;
76745;SDS011;65671;49.976;20.038;2024-01-30T02:00:24;12.85;;;5.13;;
76745;SDS011;65671;49.976;20.038;2024-01-30T02:05:15;10.63;;;4.72;;
76745;SDS011;65671;49.976;20.038;2024-01-30T02:10:07;11.18;;;4.70;;
76745;SDS011;65671;49.976;20.038;2024-01-30T02:12:33;12.15;;;4.72;;
76745;SDS011;65671;49.976;20.038;2024-01-30T02:17:24;8.70;;;4.70;;
76745;SDS011;65671;49.976;20.038;2024-01-30T02:22:15;8.93;;;4.77;;
76745;SDS011;65671;49.976;20.038;2024-01-30T02:27:06;9.07;;;4.33;;
76745;SDS011;65671;49.976;20.038;2024-01-30T02:29:35;8.63;;;4.20;;
76745;SDS011;65671;49.976;20.038;2024-01-30T02:32:00;10.30;;;4.00;;
76745;SDS011;65671;49.976;20.038;2024-01-30T02:36:51;8.10;;;3.70;;
76745;SDS011;65671;49.976;20.038;2024-01-30T02:39:16;6.78;;;3.85;;
76745;SDS011;65671;49.976;20.038;2024-01-30T02:44:07;8.10;;;4.17;;
76745;SDS011;65671;49.976;20.038;2024-01-30T02:46:33;8.30;;;4.50;;
76745;SDS011;65671;49.976;20.038;2024-01-30T02:51:23;6.63;;;4.10;;
76745;SDS011;65671;49.976;20.038;2024-01-30T02:53:49;8.52;;;4.53;;
76745;SDS011;65671;49.976;20.038;2024-01-30T02:58:40;9.43;;;3.70;;
76745;SDS011;65671;49.976;20.038;2024-01-30T03:03:31;7.10;;;3.95;;
76745;SDS011;65671;49.976;20.038;2024-01-30T03:08:22;7.30;;;4.40;;
76745;SDS011;65671;49.976;20.038;2024-01-30T03:13:13;6.10;;;3.53;;
76745;SDS011;65671;49.976;20.038;2024-01-30T03:15:38;7.63;;;3.92;;
76745;SDS011;65671;49.976;20.038;2024-01-30T03:20:29;10.35;;;4.15;;
76745;SDS011;65671;49.976;20.038;2024-01-30T03:22:55;5.28;;;3.28;;
76745;SDS011;65671;49.976;20.038;2024-01-30T03:27:46;10.07;;;4.07;;
76745;SDS011;65671;49.976;20.038;2024-01-30T03:30:11;7.43;;;3.40;;
76745;SDS011;65671;49.976;20.038;2024-01-30T03:32:40;6.70;;;3.33;;
76745;SDS011;65671;49.976;20.038;2024-01-30T03:37:31;8.63;;;4.13;;
76745;SDS011;65671;49.976;20.038;2024-01-30T03:42:21;6.35;;;3.45;;
76745;SDS011;65671;49.976;20.038;2024-01-30T03:47:12;8.43;;;4.72;;
76745;SDS011;65671;49.976;20.038;2024-01-30T03:49:38;5.57;;;3.72;;
76745;SDS011;65671;49.976;20.038;2024-01-30T03:54:29;7.73;;;4.53;;
76745;SDS011;65671;49.976;20.038;2024-01-30T03:59:19;26.73;;;11.73;;
76745;SDS011;65671;49.976;20.038;2024-01-30T04:01:51;24.00;;;11.45;;
76745;SDS011;65671;49.976;20.038;2024-01-30T04:04:20;33.13;;;16.70;;
76745;SDS011;65671;49.976;20.038;2024-01-30T04:06:46;39.40;;;20.88;;
76745;SDS011;65671;49.976;20.038;2024-01-30T04:11:40;40.72;;;20.13;;
76745;SDS011;65671;49.976;20.038;2024-01-30T04:14:07;37.55;;;19.52;;
76745;SDS011;65671;49.976;20.038;2024-01-30T04:18:58;14.68;;;7.78;;
76745;SDS011;65671;49.976;20.038;2024-01-30T04:23:50;16.50;;;11.30;;
76745;SDS011;65671;49.976;20.038;2024-01-30T04:26:16;19.95;;;8.80;;
76745;SDS011;65671;49.976;20.038;2024-01-30T04:31:07;7.50;;;3.42;;
76745;SDS011;65671;49.976;20.038;2024-01-30T04:35:58;21.53;;;11.57;;
76745;SDS011;65671;49.976;20.038;2024-01-30T04:40:49;41.47;;;20.40;;
76745;SDS011;65671;49.976;20.038;2024-01-30T04:45:40;36.53;;;18.55;;
76745;SDS011;65671;49.976;20.038;2024-01-30T04:48:09;21.20;;;12.25;;
76745;SDS011;65671;49.976;20.038;2024-01-30T04:50:34;35.00;;;16.38;;
76745;SDS011;65671;49.976;20.038;2024-01-30T04:55:25;54.50;;;22.80;;
76745;SDS011;65671;49.976;20.038;2024-01-30T04:57:50;44.63;;;23.80;;
76745;SDS011;65671;49.976;20.038;2024-01-30T05:00:16;39.38;;;18.33;;
76745;SDS011;65671;49.976;20.038;2024-01-30T05:02:41;43.08;;;21.00;;
76745;SDS011;65671;49.976;20.038;2024-01-30T05:07:33;16.10;;;8.50;;
76745;SDS011;65671;49.976;20.038;2024-01-30T05:09:59;10.73;;;4.45;;
76745;SDS011;65671;49.976;20.038;2024-01-30T05:12:24;11.40;;;4.95;;
76745;SDS011;65671;49.976;20.038;2024-01-30T05:14:50;9.45;;;3.75;;
76745;SDS011;65671;49.976;20.038;2024-01-30T05:19:42;8.60;;;4.43;;
76745;SDS011;65671;49.976;20.038;2024-01-30T05:22:08;8.32;;;4.45;;
76745;SDS011;65671;49.976;20.038;2024-01-30T05:26:58;6.13;;;3.80;;
76745;SDS011;65671;49.976;20.038;2024-01-30T05:29:24;8.52;;;4.72;;
76745;SDS011;65671;49.976;20.038;2024-01-30T05:34:17;7.55;;;3.67;;
76745;SDS011;65671;49.976;20.038;2024-01-30T05:39:08;13.27;;;5.45;;
76745;SDS011;65671;49.976;20.038;2024-01-30T05:41:34;11.77;;;5.75;;
76745;SDS011;65671;49.976;20.038;2024-01-30T05:46:24;9.17;;;4.33;;
76745;SDS011;65671;49.976;20.038;2024-01-30T05:48:50;8.73;;;4.47;;
76745;SDS011;65671;49.976;20.038;2024-01-30T05:53:40;8.80;;;4.10;;
76745;SDS011;65671;49.976;20.038;2024-01-30T05:58:31;9.27;;;3.78;;
76745;SDS011;65671;49.976;20.038;2024-01-30T06:03:23;9.52;;;3.50;;
76745;SDS011;65671;49.976;20.038;2024-01-30T06:08:14;10.90;;;5.43;;
76745;SDS011;65671;49.976;20.038;2024-01-30T06:13:05;8.40;;;4.28;;
76745;SDS011;65671;49.976;20.038;2024-01-30T06:17:57;8.68;;;4.40;;
76745;SDS011;65671;49.976;20.038;2024-01-30T06:22:48;10.03;;;4.60;;
76745;SDS011;65671;49.976;20.038;2024-01-30T06:27:39;9.83;;;4.60;;
76745;SDS011;65671;49.976;20.038;2024-01-30T06:32:31;9.43;;;4.10;;
76745;SDS011;65671;49.976;20.038;2024-01-30T06:34:59;11.43;;;5.18;;
76745;SDS011;65671;49.976;20.038;2024-01-30T06:37:25;9.30;;;5.47;;
76745;SDS011;65671;49.976;20.038;2024-01-30T06:42:17;8.82;;;5.63;;
76745;SDS011;65671;49.976;20.038;2024-01-30T06:47:08;10.50;;;4.60;;
76745;SDS011;65671;49.976;20.038;2024-01-30T06:51:59;8.35;;;4.38;;
76745;SDS011;65671;49.976;20.038;2024-01-30T06:56:50;8.90;;;3.80;;
76745;SDS011;65671;49.976;20.038;2024-01-30T06:59:17;8.82;;;4.57;;
76745;SDS011;65671;49.976;20.038;2024-01-30T07:04:08;8.60;;;4.90;;
76745;SDS011;65671;49.976;20.038;2024-01-30T07:08:58;8.73;;;4.03;;
76745;SDS011;65671;49.976;20.038;2024-01-30T07:11:27;12.85;;;5.30;;
76745;SDS011;65671;49.976;20.038;2024-01-30T07:13:54;12.27;;;5.03;;
76745;SDS011;65671;49.976;20.038;2024-01-30T07:18:44;16.45;;;5.00;;
76745;SDS011;65671;49.976;20.038;2024-01-30T07:23:35;9.63;;;4.63;;
76745;SDS011;65671;49.976;20.038;2024-01-30T07:26:04;56.88;;;30.58;;
76745;SDS011;65671;49.976;20.038;2024-01-30T07:28:32;12.15;;;6.10;;
76745;SDS011;65671;49.976;20.038;2024-01-30T07:30:58;10.65;;;4.68;;
76745;SDS011;65671;49.976;20.038;2024-01-30T07:35:49;8.67;;;4.10;;
76745;SDS011;65671;49.976;20.038;2024-01-30T07:38:14;9.13;;;4.95;;
76745;SDS011;65671;49.976;20.038;2024-01-30T07:40:40;7.57;;;4.05;;
76745;SDS011;65671;49.976;20.038;2024-01-30T07:43:06;7.35;;;4.43;;
76745;SDS011;65671;49.976;20.038;2024-01-30T07:47:59;8.88;;;4.88;;
76745;SDS011;65671;49.976;20.038;2024-01-30T07:52:50;10.57;;;4.90;;
76745;SDS011;65671;49.976;20.038;2024-01-30T07:55:19;8.43;;;4.88;;
76745;SDS011;65671;49.976;20.038;2024-01-30T07:57:54;11.90;;;5.50;;
76745;SDS011;65671;49.976;20.038;2024-01-30T08:00:23;12.63;;;6.32;;
76745;SDS011;65671;49.976;20.038;2024-01-30T08:02:48;32.40;;;11.85;;
76745;SDS011;65671;49.976;20.038;2024-01-30T08:05:14;40.00;;;17.98;;
76745;SDS011;65671;49.976;20.038;2024-01-30T08:07:40;38.85;;;18.23;;
76745;SDS011;65671;49.976;20.038;2024-01-30T08:10:07;21.60;;;11.77;;
76745;SDS011;65671;49.976;20.038;2024-01-30T08:12:33;53.33;;;21.35;;
76745;SDS011;65671;49.976;20.038;2024-01-30T08:14:58;72.28;;;33.33;;
76745;SDS011;65671;49.976;20.038;2024-01-30T08:17:24;69.75;;;31.98;;
76745;SDS011;65671;49.976;20.038;2024-01-30T08:19:49;71.70;;;32.92;;
76745;SDS011;65671;49.976;20.038;2024-01-30T08:22:15;73.85;;;33.42;;
76745;SDS011;65671;49.976;20.038;2024-01-30T08:27:06;61.47;;;28.80;;
76745;SDS011;65671;49.976;20.038;2024-01-30T08:29:34;70.38;;;32.25;;
76745;SDS011;65671;49.976;20.038;2024-01-30T08:34:25;67.72;;;32.88;;
76745;SDS011;65671;49.976;20.038;2024-01-30T08:36:51;71.30;;;36.03;;
76745;SDS011;65671;49.976;20.038;2024-01-30T08:41:41;66.77;;;34.00;;
76745;SDS011;65671;49.976;20.038;2024-01-30T08:44:07;64.45;;;33.45;;
76745;SDS011;65671;49.976;20.038;2024-01-30T08:46:32;74.82;;;35.47;;
76745;SDS011;65671;49.976;20.038;2024-01-30T08:48:59;64.20;;;33.55;;
76745;SDS011;65671;49.976;20.038;2024-01-30T08:53:49;77.83;;;37.23;;
76745;SDS011;65671;49.976;20.038;2024-01-30T08:56:15;57.63;;;30.48;;
76745;SDS011;65671;49.976;20.038;2024-01-30T08:58:41;64.07;;;30.65;;
76745;SDS011;65671;49.976;20.038;2024-01-30T09:03:32;59.13;;;29.83;;
76745;SDS011;65671;49.976;20.038;2024-01-30T09:08:23;71.30;;;34.00;;
76745;SDS011;65671;49.976;20.038;2024-01-30T09:13:15;129.10;;;52.33;;
76745;SDS011;65671;49.976;20.038;2024-01-30T09:18:09;89.32;;;41.67;;
76745;SDS011;65671;49.976;20.038;2024-01-30T09:20:34;85.88;;;41.13;;
76745;SDS011;65671;49.976;20.038;2024-01-30T09:23:00;84.68;;;39.38;;
76745;SDS011;65671;49.976;20.038;2024-01-30T09:27:50;64.97;;;34.97;;
76745;SDS011;65671;49.976;20.038;2024-01-30T09:30:16;59.53;;;33.80;;
76745;SDS011;65671;49.976;20.038;2024-01-30T09:32:42;72.22;;;38.03;;
76745;SDS011;65671;49.976;20.038;2024-01-30T09:35:08;68.80;;;36.72;;
76745;SDS011;65671;49.976;20.038;2024-01-30T09:37:34;68.03;;;35.08;;
76745;SDS011;65671;49.976;20.038;2024-01-30T09:40:00;64.60;;;34.38;;
76745;SDS011;65671;49.976;20.038;2024-01-30T09:42:33;67.70;;;34.67;;
76745;SDS011;65671;49.976;20.038;2024-01-30T09:45:02;73.00;;;36.63;;
76745;SDS011;65671;49.976;20.038;2024-01-30T09:47:32;87.53;;;40.08;;
76745;SDS011;65671;49.976;20.038;2024-01-30T09:50:06;75.30;;;37.28;;
76745;SDS011;65671;49.976;20.038;2024-01-30T09:52:32;72.38;;;35.97;;
76745;SDS011;65671;49.976;20.038;2024-01-30T09:54:59;66.40;;;38.55;;
76745;SDS011;65671;49.976;20.038;2024-01-30T09:57:25;74.03;;;39.33;;
76745;SDS011;65671;49.976;20.038;2024-01-30T09:59:51;62.58;;;32.58;;
76745;SDS011;65671;49.976;20.038;2024-01-30T10:02:19;68.35;;;35.03;;
76745;SDS011;65671;49.976;20.038;2024-01-30T10:04:46;62.53;;;33.55;;
76745;SDS011;65671;49.976;20.038;2024-01-30T10:07:16;66.80;;;34.65;;
76745;SDS011;65671;49.976;20.038;2024-01-30T10:09:45;69.30;;;36.45;;
76745;SDS011;65671;49.976;20.038;2024-01-30T10:12:11;63.38;;;33.72;;
76745;SDS011;65671;49.976;20.038;2024-01-30T10:14:40;64.50;;;32.08;;
76745;SDS011;65671;49.976;20.038;2024-01-30T10:17:07;63.45;;;32.17;;
76745;SDS011;65671;49.976;20.038;2024-01-30T10:19:37;58.45;;;30.85;;
76745;SDS011;65671;49.976;20.038;2024-01-30T10:22:03;67.00;;;32.65;;
76745;SDS011;65671;49.976;20.038;2024-01-30T10:24:29;60.85;;;33.03;;
76745;SDS011;65671;49.976;20.038;2024-01-30T10:26:55;54.40;;;28.73;;
76745;SDS011;65671;49.976;20.038;2024-01-30T10:29:21;61.67;;;30.23;;
76745;SDS011;65671;49.976;20.038;2024-01-30T10:32:03;56.30;;;28.90;;
76745;SDS011;65671;49.976;20.038;2024-01-30T10:34:30;53.53;;;29.02;;
76745;SDS011;65671;49.976;20.038;2024-01-30T10:37:06;57.75;;;27.35;;
76745;SDS011;65671;49.976;20.038;2024-01-30T10:39:38;58.10;;;28.23;;
76745;SDS011;65671;49.976;20.038;2024-01-30T10:42:04;53.45;;;28.35;;
76745;SDS011;65671;49.976;20.038;2024-01-30T10:44:36;57.78;;;27.52;;
76745;SDS011;65671;49.976;20.038;2024-01-30T10:47:10;56.53;;;27.73;;
76745;SDS011;65671;49.976;20.038;2024-01-30T10:49:41;56.55;;;27.67;;
76745;SDS011;65671;49.976;20.038;2024-01-30T10:52:08;59.25;;;29.48;;
76745;SDS011;65671;49.976;20.038;2024-01-30T10:54:35;52.53;;;26.15;;
76745;SDS011;65671;49.976;20.038;2024-01-30T10:57:02;56.08;;;26.27;;
76745;SDS011;65671;49.976;20.038;2024-01-30T10:59:30;52.35;;;26.77;;
76745;SDS011;65671;49.976;20.038;2024-01-30T11:01:57;51.08;;;26.38;;
76745;SDS011;65671;49.976;20.038;2024-01-30T11:04:24;59.63;;;28.60;;
76745;SDS011;65671;49.976;20.038;2024-01-30T11:06:50;54.85;;;26.77;;
76745;SDS011;65671;49.976;20.038;2024-01-30T11:09:17;45.83;;;27.45;;
76745;SDS011;65671;49.976;20.038;2024-01-30T11:11:55;47.58;;;25.02;;
76745;SDS011;65671;49.976;20.038;2024-01-30T11:14:25;55.65;;;26.23;;
76745;SDS011;65671;49.976;20.038;2024-01-30T11:16:52;61.15;;;25.25;;
76745;SDS011;65671;49.976;20.038;2024-01-30T11:19:23;48.50;;;25.45;;
76745;SDS011;65671;49.976;20.038;2024-01-30T11:21:51;55.10;;;27.63;;
76745;SDS011;65671;49.976;20.038;2024-01-30T11:24:21;52.35;;;27.35;;
76745;SDS011;65671;49.976;20.038;2024-01-30T11:26:55;53.38;;;26.65;;
76745;SDS011;65671;49.976;20.038;2024-01-30T11:29:29;54.95;;;27.80;;
76745;SDS011;65671;49.976;20.038;2024-01-30T11:31:55;60.35;;;30.50;;
76745;SDS011;65671;49.976;20.038;2024-01-30T11:34:22;66.57;;;30.80;;
76745;SDS011;65671;49.976;20.038;2024-01-30T11:36:57;63.92;;;32.38;;
76745;SDS011;65671;49.976;20.038;2024-01-30T11:39:27;60.75;;;30.17;;
76745;SDS011;65671;49.976;20.038;2024-01-30T11:41:54;56.28;;;29.55;;
76745;SDS011;65671;49.976;20.038;2024-01-30T11:44:21;63.78;;;31.10;;
76745;SDS011;65671;49.976;20.038;2024-01-30T11:46:52;49.78;;;28.08;;
76745;SDS011;65671;49.976;20.038;2024-01-30T11:49:18;53.15;;;26.10;;
76745;SDS011;65671;49.976;20.038;2024-01-30T11:51:47;58.30;;;30.48;;
76745;SDS011;65671;49.976;20.038;2024-01-30T11:54:18;49.75;;;26.15;;
76745;SDS011;65671;49.976;20.038;2024-01-30T11:56:44;49.40;;;29.30;;
76745;SDS011;65671;49.976;20.038;2024-01-30T11:59:09;64.47;;;29.38;;
76745;SDS011;65671;49.976;20.038;2024-01-30T12:01:35;58.28;;;28.30;;
76745;SDS011;65671;49.976;20.038;2024-01-30T12:04:01;51.47;;;27.02;;
76745;SDS011;65671;49.976;20.038;2024-01-30T12:06:28;53.78;;;28.50;;
76745;SDS011;65671;49.976;20.038;2024-01-30T12:11:23;49.67;;;26.27;;
76745;SDS011;65671;49.976;20.038;2024-01-30T12:13:48;56.40;;;28.70;;
76745;SDS011;65671;49.976;20.038;2024-01-30T12:16:15;56.20;;;27.25;;
76745;SDS011;65671;49.976;20.038;2024-01-30T12:18:44;55.58;;;28.15;;
76745;SDS011;65671;49.976;20.038;2024-01-30T12:21:09;50.47;;;27.38;;
76745;SDS011;65671;49.976;20.038;2024-01-30T12:23:35;58.05;;;28.75;;
76745;SDS011;65671;49.976;20.038;2024-01-30T12:26:01;58.80;;;28.00;;
76745;SDS011;65671;49.976;20.038;2024-01-30T12:28:28;52.40;;;27.65;;
76745;SDS011;65671;49.976;20.038;2024-01-30T12:30:55;50.95;;;26.92;;
76745;SDS011;65671;49.976;20.038;2024-01-30T12:33:24;53.63;;;28.35;;
76745;SDS011;65671;49.976;20.038;2024-01-30T12:35:51;48.78;;;25.48;;
76745;SDS011;65671;49.976;20.038;2024-01-30T12:38:17;51.15;;;27.45;;
76745;SDS011;65671;49.976;20.038;2024-01-30T12:40:42;48.90;;;26.30;;
76745;SDS011;65671;49.976;20.038;2024-01-30T12:43:09;56.38;;;30.33;;
76745;SDS011;65671;49.976;20.038;2024-01-30T12:45:35;56.85;;;29.30;;
76745;SDS011;65671;49.976;20.038;2024-01-30T12:48:01;59.13;;;28.75;;
76745;SDS011;65671;49.976;20.038;2024-01-30T12:50:27;53.63;;;27.45;;
76745;SDS011;65671;49.976;20.038;2024-01-30T12:52:52;55.97;;;28.17;;
76745;SDS011;65671;49.976;20.038;2024-01-30T12:55:18;52.17;;;26.23;;
76745;SDS011;65671;49.976;20.038;2024-01-30T12:57:44;49.92;;;26.80;;
76745;SDS011;65671;49.976;20.038;2024-01-30T13:00:09;53.00;;;25.95;;
76745;SDS011;65671;49.976;20.038;2024-01-30T13:02:35;54.03;;;26.50;;
76745;SDS011;65671;49.976;20.038;2024-01-30T13:05:02;54.75;;;27.45;;
76745;SDS011;65671;49.976;20.038;2024-01-30T13:07:28;55.08;;;26.92;;
76745;SDS011;65671;49.976;20.038;2024-01-30T13:09:53;53.97;;;25.80;;
76745;SDS011;65671;49.976;20.038;2024-01-30T13:12:19;47.65;;;26.55;;
76745;SDS011;65671;49.976;20.038;2024-01-30T13:14:44;54.17;;;25.63;;
76745;SDS011;65671;49.976;20.038;2024-01-30T13:17:10;47.40;;;25.38;;
76745;SDS011;65671;49.976;20.038;2024-01-30T13:19:35;49.05;;;23.52;;
76745;SDS011;65671;49.976;20.038;2024-01-30T13:22:00;41.00;;;23.05;;
76745;SDS011;65671;49.976;20.038;2024-01-30T13:24:26;43.85;;;23.05;;
76745;SDS011;65671;49.976;20.038;2024-01-30T13:26:52;53.03;;;26.63;;
76745;SDS011;65671;49.976;20.038;2024-01-30T13:29:18;48.08;;;24.85;;
76745;SDS011;65671;49.976;20.038;2024-01-30T13:31:43;41.33;;;23.23;;
76745;SDS011;65671;49.976;20.038;2024-01-30T13:34:11;42.47;;;24.23;;
76745;SDS011;65671;49.976;20.038;2024-01-30T13:36:37;46.33;;;24.25;;
76745;SDS011;65671;49.976;20.038;2024-01-30T13:39:03;43.50;;;23.80;;
76745;SDS011;65671;49.976;20.038;2024-01-30T13:41:32;49.75;;;24.48;;
76745;SDS011;65671;49.976;20.038;2024-01-30T13:43:58;42.15;;;24.10;;
76745;SDS011;65671;49.976;20.038;2024-01-30T13:46:23;46.75;;;23.45;;
76745;SDS011;65671;49.976;20.038;2024-01-30T13:48:50;43.50;;;22.83;;
76745;SDS011;65671;49.976;20.038;2024-01-30T13:51:16;44.65;;;23.70;;
76745;SDS011;65671;49.976;20.038;2024-01-30T13:53:42;45.08;;;24.08;;
76745;SDS011;65671;49.976;20.038;2024-01-30T13:56:07;44.38;;;22.48;;
76745;SDS011;65671;49.976;20.038;2024-01-30T13:58:33;44.85;;;24.77;;
76745;SDS011;65671;49.976;20.038;2024-01-30T14:00:58;45.47;;;25.77;;
76745;SDS011;65671;49.976;20.038;2024-01-30T14:03:24;43.28;;;22.35;;
76745;SDS011;65671;49.976;20.038;2024-01-30T14:05:49;46.55;;;24.30;;
76745;SDS011;65671;49.976;20.038;2024-01-30T14:08:15;48.70;;;25.83;;
76745;SDS011;65671;49.976;20.038;2024-01-30T14:10:40;48.53;;;25.63;;
76745;SDS011;65671;49.976;20.038;2024-01-30T14:13:06;46.05;;;24.20;;
76745;SDS011;65671;49.976;20.038;2024-01-30T14:15:31;47.45;;;25.73;;
76745;SDS011;65671;49.976;20.038;2024-01-30T14:17:57;46.42;;;26.08;;
76745;SDS011;65671;49.976;20.038;2024-01-30T14:20:22;43.63;;;25.50;;
76745;SDS011;65671;49.976;20.038;2024-01-30T14:22:48;47.13;;;26.50;;
76745;SDS011;65671;49.976;20.038;2024-01-30T14:25:13;48.33;;;26.15;;
76745;SDS011;65671;49.976;20.038;2024-01-30T14:27:39;53.13;;;25.70;;
76745;SDS011;65671;49.976;20.038;2024-01-30T14:30:04;54.42;;;26.55;;
76745;SDS011;65671;49.976;20.038;2024-01-30T14:32:30;50.40;;;25.00;;
76745;SDS011;65671;49.976;20.038;2024-01-30T14:34:56;50.85;;;28.45;;
76745;SDS011;65671;49.976;20.038;2024-01-30T14:37:21;57.50;;;32.35;;
76745;SDS011;65671;49.976;20.038;2024-01-30T14:39:47;52.20;;;28.63;;
76745;SDS011;65671;49.976;20.038;2024-01-30T14:42:13;49.10;;;25.95;;
76745;SDS011;65671;49.976;20.038;2024-01-30T14:44:39;53.88;;;26.95;;
76745;SDS011;65671;49.976;20.038;2024-01-30T14:47:05;48.83;;;26.33;;
76745;SDS011;65671;49.976;20.038;2024-01-30T14:49:31;52.20;;;26.70;;
76745;SDS011;65671;49.976;20.038;2024-01-30T14:51:56;57.58;;;27.50;;
76745;SDS011;65671;49.976;20.038;2024-01-30T14:54:23;51.45;;;24.77;;
76745;SDS011;65671;49.976;20.038;2024-01-30T14:56:48;48.13;;;26.00;;
76745;SDS011;65671;49.976;20.038;2024-01-30T14:59:14;55.25;;;25.13;;
76745;SDS011;65671;49.976;20.038;2024-01-30T15:01:40;48.20;;;25.08;;
76745;SDS011;65671;49.976;20.038;2024-01-30T15:04:05;44.83;;;23.38;;
76745;SDS011;65671;49.976;20.038;2024-01-30T15:06:31;51.00;;;26.58;;
76745;SDS011;65671;49.976;20.038;2024-01-30T15:08:58;46.53;;;24.73;;
76745;SDS011;65671;49.976;20.038;2024-01-30T15:11:23;45.67;;;25.98;;
76745;SDS011;65671;49.976;20.038;2024-01-30T15:13:49;49.92;;;26.02;;
76745;SDS011;65671;49.976;20.038;2024-01-30T15:16:14;48.47;;;24.05;;
76745;SDS011;65671;49.976;20.038;2024-01-30T15:18:40;45.63;;;24.45;;
76745;SDS011;65671;49.976;20.038;2024-01-30T15:21:05;49.10;;;23.65;;
76745;SDS011;65671;49.976;20.038;2024-01-30T15:23:31;46.28;;;21.65;;
76745;SDS011;65671;49.976;20.038;2024-01-30T15:25:56;47.85;;;23.50;;
76745;SDS011;65671;49.976;20.038;2024-01-30T15:28:37;51.88;;;23.92;;
76745;SDS011;65671;49.976;20.038;2024-01-30T15:31:04;47.80;;;24.00;;
76745;SDS011;65671;49.976;20.038;2024-01-30T15:33:31;49.22;;;26.30;;
76745;SDS011;65671;49.976;20.038;2024-01-30T15:35:58;53.55;;;25.35;;
76745;SDS011;65671;49.976;20.038;2024-01-30T15:38:24;59.97;;;25.52;;
76745;SDS011;65671;49.976;20.038;2024-01-30T15:40:49;47.08;;;22.20;;
76745;SDS011;65671;49.976;20.038;2024-01-30T15:43:15;45.30;;;23.40;;
76745;SDS011;65671;49.976;20.038;2024-01-30T15:45:40;54.83;;;24.38;;
76745;SDS011;65671;49.976;20.038;2024-01-30T15:48:06;49.53;;;27.27;;
76745;SDS011;65671;49.976;20.038;2024-01-30T15:50:32;75.05;;;35.70;;
76745;SDS011;65671;49.976;20.038;2024-01-30T15:52:57;51.38;;;24.90;;
76745;SDS011;65671;49.976;20.038;2024-01-30T15:55:23;48.42;;;23.08;;
76745;SDS011;65671;49.976;20.038;2024-01-30T15:57:48;50.30;;;23.55;;
76745;SDS011;65671;49.976;20.038;2024-01-30T16:00:14;46.97;;;21.88;;
76745;SDS011;65671;49.976;20.038;2024-01-30T16:02:40;56.65;;;27.33;;
76745;SDS011;65671;49.976;20.038;2024-01-30T16:05:06;56.60;;;27.52;;
76745;SDS011;65671;49.976;20.038;2024-01-30T16:07:33;59.13;;;28.70;;
76745;SDS011;65671;49.976;20.038;2024-01-30T16:09:59;59.35;;;30.23;;
76745;SDS011;65671;49.976;20.038;2024-01-30T16:12:24;54.10;;;30.02;;
76745;SDS011;65671;49.976;20.038;2024-01-30T16:14:50;51.95;;;26.85;;
76745;SDS011;65671;49.976;20.038;2024-01-30T16:17:15;49.30;;;25.40;;
76745;SDS011;65671;49.976;20.038;2024-01-30T16:19:41;44.63;;;23.30;;
76745;SDS011;65671;49.976;20.038;2024-01-30T16:22:09;36.72;;;21.20;;
76745;SDS011;65671;49.976;20.038;2024-01-30T16:24:37;39.45;;;20.88;;
76745;SDS011;65671;49.976;20.038;2024-01-30T16:27:05;42.45;;;21.20;;
76745;SDS011;65671;49.976;20.038;2024-01-30T16:29:30;35.17;;;19.45;;
76745;SDS011;65671;49.976;20.038;2024-01-30T16:31:56;40.50;;;20.38;;
76745;SDS011;65671;49.976;20.038;2024-01-30T16:34:23;33.08;;;17.77;;
76745;SDS011;65671;49.976;20.038;2024-01-30T16:36:48;39.70;;;19.63;;
76745;SDS011;65671;49.976;20.038;2024-01-30T16:39:14;46.58;;;22.25;;
76745;SDS011;65671;49.976;20.038;2024-01-30T16:41:39;51.00;;;25.92;;
76745;SDS011;65671;49.976;20.038;2024-01-30T16:44:05;57.92;;;25.88;;
76745;SDS011;65671;49.976;20.038;2024-01-30T16:46:31;52.05;;;23.58;;
76745;SDS011;65671;49.976;20.038;2024-01-30T16:48:58;47.28;;;24.50;;
76745;SDS011;65671;49.976;20.038;2024-01-30T16:51:23;57.95;;;24.90;;
76745;SDS011;65671;49.976;20.038;2024-01-30T16:53:49;66.40;;;28.42;;
76745;SDS011;65671;49.976;20.038;2024-01-30T16:56:16;77.35;;;30.45;;
76745;SDS011;65671;49.976;20.038;2024-01-30T16:59:00;69.10;;;27.92;;
76745;SDS011;65671;49.976;20.038;2024-01-30T17:01:25;59.85;;;26.70;;
76745;SDS011;65671;49.976;20.038;2024-01-30T17:03:51;58.38;;;24.67;;
76745;SDS011;65671;49.976;20.038;2024-01-30T17:06:16;53.08;;;22.77;;
76745;SDS011;65671;49.976;20.038;2024-01-30T17:08:42;49.33;;;22.23;;
76745;SDS011;65671;49.976;20.038;2024-01-30T17:11:07;44.35;;;19.15;;
76745;SDS011;65671;49.976;20.038;2024-01-30T17:16:53;34.53;;;17.52;;
76745;SDS011;65671;49.976;20.038;2024-01-30T17:19:21;27.70;;;12.93;;
76745;SDS011;65671;49.976;20.038;2024-01-30T17:21:53;30.73;;;12.63;;
76745;SDS011;65671;49.976;20.038;2024-01-30T17:24:19;25.40;;;11.65;;
76745;SDS011;65671;49.976;20.038;2024-01-30T17:26:45;30.40;;;12.52;;
76745;SDS011;65671;49.976;20.038;2024-01-30T17:29:11;23.40;;;11.45;;